Time;durP1;ratioP1;P1;durP2;ratioP2;P2;SDS_P1;SDS_P2;PMS_P1;PMS_P2;Temp;Humidity;BMP_temperature;BMP_pressure;BME280_temperature;BME280_humidity;BME280_pressure;Samples;Min_cycle;Max_cycle;Signal;HPM_P1;HPM_P2
2022/06/19 00:00:34;;;;;;;5.20;0.70;;;16.40;91.40;;;;;;5021707;28;20042;-69
2022/06/19 00:03:02;;;;;;;7.82;0.73;;;16.40;91.30;;;;;;5023096;28;20528;-69
2022/06/19 00:05:27;;;;;;;5.55;0.80;;;16.40;91.80;;;;;;5038759;28;20033;-70
2022/06/19 00:07:53;;;;;;;4.65;0.75;;;16.30;91.50;;;;;;5024545;28;20033;-70
2022/06/19 00:10:18;;;;;;;6.50;1.02;;;16.30;91.70;;;;;;5038709;28;20520;-67
2022/06/19 00:12:44;;;;;;;3.83;0.52;;;16.30;91.60;;;;;;5023155;28;20033;-70
2022/06/19 00:15:10;;;;;;;4.47;0.70;;;16.30;91.60;;;;;;5042561;28;20397;-67
2022/06/19 00:17:35;;;;;;;6.22;0.70;;;16.30;91.70;;;;;;5040328;28;20037;-68
2022/06/19 00:20:01;;;;;;;6.32;0.70;;;16.30;91.70;;;;;;5024689;28;20041;-69
2022/06/19 00:22:27;;;;;;;6.50;1.15;;;16.30;92.00;;;;;;5024410;28;20500;-68
2022/06/19 00:24:52;;;;;;;6.57;0.70;;;16.30;91.90;;;;;;5024938;28;20064;-70
2022/06/19 00:27:18;;;;;;;5.45;0.88;;;16.30;91.90;;;;;;5043265;28;20064;-71
2022/06/19 00:29:44;;;;;;;7.57;1.15;;;16.30;92.20;;;;;;5040726;28;20038;-68
2022/06/19 00:32:09;;;;;;;6.13;0.70;;;16.40;92.10;;;;;;5042131;28;20038;-69
2022/06/19 00:34:36;;;;;;;3.85;0.70;;;16.40;92.50;;;;;;5021457;28;20150;-71
2022/06/19 00:37:03;;;;;;;4.10;0.80;;;16.40;92.00;;;;;;5041753;28;20064;-69
2022/06/19 00:39:28;;;;;;;8.88;1.42;;;16.40;92.00;;;;;;5020251;28;20041;-69
2022/06/19 00:41:55;;;;;;;7.03;1.00;;;16.40;92.20;;;;;;5040901;28;20489;-70
2022/06/19 00:44:21;;;;;;;4.80;0.85;;;16.40;92.20;;;;;;5036920;28;20175;-68
2022/06/19 00:46:54;;;;;;;6.25;0.63;;;16.40;92.00;;;;;;5033144;28;20051;-70
2022/06/19 00:49:51;;;;;;;7.82;0.80;;;16.40;91.80;;;;;;5015007;28;20107;-69
2022/06/19 00:52:30;;;;;;;8.02;0.30;;;16.40;92.00;;;;;;5019516;28;20152;-70
2022/06/19 00:55:24;;;;;;;7.65;0.70;;;16.40;91.30;;;;;;5035844;28;20114;-68
2022/06/19 00:58:02;;;;;;;5.00;0.50;;;16.50;91.50;;;;;;5012416;28;20030;-70
2022/06/19 01:00:30;;;;;;;4.97;0.63;;;16.50;91.70;;;;;;5035121;28;20044;-68
2022/06/19 01:03:22;;;;;;;5.72;0.40;;;16.60;90.90;;;;;;5021510;28;20120;-70
2022/06/19 01:05:48;;;;;;;2.92;0.30;;;16.60;90.70;;;;;;5008338;28;20040;-70
2022/06/19 01:08:14;;;;;;;3.45;0.95;;;16.70;91.90;;;;;;5036461;28;20481;-69
2022/06/19 01:10:44;;;;;;;2.70;0.32;;;16.60;91.70;;;;;;5038135;28;20095;-68
2022/06/19 01:13:12;;;;;;;3.47;0.60;;;16.70;92.10;;;;;;5021891;28;20067;-69
2022/06/19 01:15:39;;;;;;;4.55;0.60;;;16.70;92.50;;;;;;5018907;28;20029;-68
2022/06/19 01:18:07;;;;;;;5.30;0.55;;;16.70;93.10;;;;;;5041283;28;20111;-70
2022/06/19 01:20:34;;;;;;;3.70;0.45;;;16.70;95.10;;;;;;5020108;28;20128;-68
2022/06/19 01:23:11;;;;;;;1.75;0.60;;;16.70;96.50;;;;;;5038110;28;20043;-70
2022/06/19 01:25:39;;;;;;;7.38;0.47;;;16.60;97.70;;;;;;5040467;28;20040;-70
2022/06/19 01:28:45;;;;;;;15.60;0.68;;;16.60;98.80;;;;;;5038045;28;20025;-71
2022/06/19 01:31:46;;;;;;;4.85;0.50;;;16.50;99.80;;;;;;5040396;28;20112;-67
2022/06/19 01:34:29;;;;;;;;;;;16.40;98.90;;;;;;5045286;28;20120;-68
2022/06/19 01:37:10;;;;;;;7.32;0.70;;;16.30;98.80;;;;;;5037720;28;20357;-69
2022/06/19 01:39:46;;;;;;;3.72;1.02;;;16.20;98.70;;;;;;5038122;28;20041;-69
2022/06/19 01:42:12;;;;;;;6.30;0.40;;;16.20;97.50;;;;;;5018379;28;20136;-67
2022/06/19 01:44:40;;;;;;;8.10;1.02;;;16.10;97.50;;;;;;5020741;28;20120;-70
2022/06/19 01:47:06;;;;;;;3.85;0.30;;;16.10;96.60;;;;;;5040169;28;20106;-70
2022/06/19 01:49:34;;;;;;;7.82;0.75;;;16.10;96.60;;;;;;5037646;28;20493;-70
2022/06/19 01:52:03;;;;;;;6.22;0.40;;;16.10;95.60;;;;;;5038171;28;20025;-70
2022/06/19 01:54:35;;;;;;;3.42;0.32;;;16.10;95.50;;;;;;5020709;28;20041;-69
2022/06/19 01:57:02;;;;;;;2.08;0.73;;;16.10;94.00;;;;;;5021271;28;20036;-69
2022/06/19 01:59:31;;;;;;;1.65;0.25;;;16.10;93.70;;;;;;5036854;28;20038;-68
2022/06/19 02:01:59;;;;;;;4.22;0.60;;;16.20;93.00;;;;;;5043744;28;20033;-69
2022/06/19 02:04:25;;;;;;;5.68;0.68;;;16.20;91.90;;;;;;5021075;28;20041;-69
2022/06/19 02:06:57;;;;;;;2.75;0.35;;;16.20;92.10;;;;;;5024958;28;20017;-70
2022/06/19 02:09:23;;;;;;;5.28;0.28;;;16.20;91.50;;;;;;5021065;28;20120;-69
2022/06/19 02:11:49;;;;;;;1.20;0.50;;;16.20;91.70;;;;;;5042041;28;20036;-70
2022/06/19 02:14:16;;;;;;;3.10;0.40;;;16.20;91.90;;;;;;5038934;28;20040;-70
2022/06/19 02:16:45;;;;;;;7.55;0.93;;;16.20;91.80;;;;;;5043360;28;20033;-68
2022/06/19 02:19:11;;;;;;;3.00;0.30;;;16.30;92.20;;;;;;5040594;28;20044;-70
2022/06/19 02:21:43;;;;;;;6.90;0.98;;;16.20;93.40;;;;;;5037333;28;20037;-69
2022/06/19 02:24:11;;;;;;;8.63;0.50;;;16.20;94.60;;;;;;5038316;28;20497;-70
2022/06/19 02:26:40;;;;;;;6.00;0.55;;;16.20;95.30;;;;;;5042417;28;20107;-70
2022/06/19 02:29:11;;;;;;;8.77;0.70;;;16.30;95.40;;;;;;5043529;28;20037;-70
2022/06/19 02:31:39;;;;;;;6.80;1.45;;;16.20;95.70;;;;;;5039949;28;20671;-71
2022/06/19 02:34:12;;;;;;;3.92;1.10;;;16.30;95.60;;;;;;5042535;28;20025;-70
2022/06/19 02:36:41;;;;;;;5.85;0.50;;;16.30;95.90;;;;;;5042952;28;20102;-70
2022/06/19 02:39:19;;;;;;;8.88;0.73;;;16.30;96.10;;;;;;5022833;28;20030;-72
2022/06/19 02:41:59;;;;;;;6.05;0.68;;;16.30;96.50;;;;;;5034617;28;20505;-68
2022/06/19 02:44:38;;;;;;;8.75;0.75;;;16.20;97.00;;;;;;5041182;28;20059;-70
2022/06/19 02:47:04;;;;;;;5.50;0.77;;;16.30;98.10;;;;;;5024920;28;20028;-71
2022/06/19 02:49:30;;;;;;;5.88;1.58;;;16.30;99.00;;;;;;5040836;28;20041;-68
2022/06/19 02:51:55;;;;;;;6.15;0.90;;;16.30;99.50;;;;;;5041752;28;20038;-70
2022/06/19 02:54:21;;;;;;;5.45;0.57;;;16.20;99.50;;;;;;5041530;28;20082;-70
2022/06/19 02:56:46;;;;;;;7.93;1.23;;;16.20;99.70;;;;;;5022801;28;20412;-69
2022/06/19 02:59:12;;;;;;;15.02;1.60;;;16.10;99.50;;;;;;5042776;28;20025;-69
2022/06/19 03:01:37;;;;;;;3.70;0.70;;;16.10;99.30;;;;;;5039764;28;20034;-70
2022/06/19 03:04:03;;;;;;;11.23;1.40;;;16.00;99.50;;;;;;5024617;28;20026;-69
2022/06/19 03:06:29;;;;;;;4.65;0.77;;;16.00;99.60;;;;;;5040541;28;20029;-68
2022/06/19 03:08:54;;;;;;;5.70;1.20;;;16.00;99.80;;;;;;5023904;28;20033;-70
2022/06/19 03:11:20;;;;;;;7.15;0.88;;;16.00;99.40;;;;;;5023282;28;20064;-70
2022/06/19 03:13:46;;;;;;;5.97;0.70;;;16.00;99.50;;;;;;5021538;28;20040;-67
2022/06/19 03:16:12;;;;;;;14.10;0.80;;;16.10;99.50;;;;;;5043172;28;20047;-70
2022/06/19 03:18:38;;;;;;;11.13;1.33;;;16.10;99.90;;;;;;5040037;28;20109;-70
2022/06/19 03:21:04;;;;;;;4.15;0.88;;;16.10;99.90;;;;;;5043321;28;20025;-70
2022/06/19 03:23:30;;;;;;;11.98;1.00;;;16.10;99.90;;;;;;5042403;28;20045;-67
2022/06/19 03:25:56;;;;;;;10.80;2.35;;;16.20;99.90;;;;;;5029525;28;20040;-69
2022/06/19 03:28:21;;;;;;;5.97;1.00;;;16.10;99.90;;;;;;5040046;28;20033;-71
2022/06/19 03:30:53;;;;;;;9.05;1.13;;;16.10;99.90;;;;;;5039354;28;20521;-68
2022/06/19 03:33:19;;;;;;;10.98;2.72;;;16.00;99.90;;;;;;5019231;28;20084;-69
2022/06/19 03:35:45;;;;;;;8.57;1.85;;;16.00;99.90;;;;;;5043557;28;20026;-68
2022/06/19 03:38:10;;;;;;;10.50;1.50;;;16.00;99.90;;;;;;5045730;28;20124;-70
2022/06/19 03:40:36;;;;;;;7.07;0.60;;;15.90;99.60;;;;;;5017832;28;20034;-68
2022/06/19 03:43:01;;;;;;;13.95;1.52;;;15.90;97.60;;;;;;5023444;28;20095;-68
2022/06/19 03:45:27;;;;;;;3.92;0.82;;;16.00;97.20;;;;;;5037646;28;20046;-70
2022/06/19 03:47:52;;;;;;;6.65;1.05;;;16.00;96.60;;;;;;5041172;28;20033;-70
2022/06/19 03:50:18;;;;;;;6.20;0.82;;;16.10;96.60;;;;;;5040759;28;20033;-68
2022/06/19 03:52:45;;;;;;;5.45;0.73;;;16.00;96.20;;;;;;5043407;28;20035;-69
2022/06/19 03:55:11;;;;;;;5.13;0.50;;;16.10;95.80;;;;;;5022515;28;20133;-70
2022/06/19 03:57:36;;;;;;;11.27;1.23;;;16.00;95.70;;;;;;5036499;28;20398;-70
2022/06/19 04:00:03;;;;;;;3.53;0.60;;;16.00;95.10;;;;;;5046189;28;20064;-67
2022/06/19 04:02:29;;;;;;;7.93;1.30;;;16.10;94.50;;;;;;5021167;28;20037;-70
2022/06/19 04:04:54;;;;;;;5.00;1.15;;;16.10;94.00;;;;;;5040711;28;20033;-69
2022/06/19 04:07:20;;;;;;;6.63;0.70;;;16.20;94.10;;;;;;5040484;28;20033;-70
2022/06/19 04:09:45;;;;;;;9.18;1.17;;;16.20;94.30;;;;;;5021015;28;20607;-68
2022/06/19 04:12:12;;;;;;;10.85;1.67;;;16.20;94.90;;;;;;5041597;28;20037;-70
2022/06/19 04:14:38;;;;;;;7.78;1.20;;;16.00;96.60;;;;;;5037606;28;20038;-72
2022/06/19 04:17:06;;;;;;;8.05;1.08;;;15.50;98.40;;;;;;5041634;28;20033;-68
2022/06/19 04:19:31;;;;;;;8.73;0.85;;;15.00;99.90;;;;;;5019323;28;20414;-69
2022/06/19 04:21:57;;;;;;;5.03;0.68;;;14.40;99.90;;;;;;5040616;28;20086;-70
2022/06/19 04:24:22;;;;;;;6.60;0.47;;;14.00;99.90;;;;;;5039019;28;20040;-70
2022/06/19 04:26:48;;;;;;;6.60;0.93;;;13.70;99.90;;;;;;5022427;28;20136;-68
2022/06/19 04:29:15;;;;;;;8.13;0.80;;;13.50;99.90;;;;;;5041183;28;20032;-69
2022/06/19 04:31:41;;;;;;;7.35;0.70;;;13.40;99.90;;;;;;5019736;28;20041;-69
2022/06/19 04:34:09;;;;;;;11.45;0.93;;;13.50;99.90;;;;;;5019981;28;20029;-69
2022/06/19 04:36:35;;;;;;;7.47;1.35;;;13.60;99.90;;;;;;5036337;28;20025;-69
2022/06/19 04:39:01;;;;;;;7.75;1.17;;;13.60;99.90;;;;;;5038451;28;20034;-67
2022/06/19 04:41:32;;;;;;;7.22;0.80;;;13.70;99.90;;;;;;5021270;28;20048;-69
2022/06/19 04:43:59;;;;;;;8.02;0.82;;;13.70;99.90;;;;;;5020630;28;20035;-70
2022/06/19 04:46:26;;;;;;;1.38;0.38;;;13.80;99.90;;;;;;5039492;28;20030;-70
2022/06/19 04:48:52;;;;;;;10.02;1.35;;;13.80;99.90;;;;;;5039855;28;20492;-70
2022/06/19 04:51:18;;;;;;;8.48;0.60;;;13.90;99.90;;;;;;5038592;28;20025;-68
2022/06/19 04:53:44;;;;;;;8.02;0.65;;;13.90;99.90;;;;;;5039662;28;20036;-69
2022/06/19 04:56:12;;;;;;;10.75;0.80;;;14.00;99.90;;;;;;5020200;28;20067;-69
2022/06/19 04:58:38;;;;;;;5.43;0.95;;;14.00;99.90;;;;;;5037174;28;20512;-70
2022/06/19 05:01:14;;;;;;;4.22;0.80;;;14.10;99.90;;;;;;5041586;28;20033;-67
2022/06/19 05:03:39;;;;;;;6.22;0.77;;;14.20;99.90;;;;;;5017295;28;20402;-69
2022/06/19 05:06:05;;;;;;;6.70;1.08;;;14.30;99.90;;;;;;5046226;28;20043;-69
2022/06/19 05:08:32;;;;;;;7.18;1.23;;;14.30;99.90;;;;;;5023943;28;20041;-68
2022/06/19 05:10:57;;;;;;;8.50;1.10;;;14.30;99.90;;;;;;5026050;28;20040;-70
2022/06/19 05:13:25;;;;;;;6.75;1.05;;;14.40;99.90;;;;;;5038503;28;20091;-69
2022/06/19 05:16:11;;;;;;;7.38;0.80;;;14.50;99.90;;;;;;5022189;28;20025;-69
2022/06/19 05:18:37;;;;;;;7.90;0.80;;;14.60;99.90;;;;;;5033290;28;20033;-70
2022/06/19 05:21:04;;;;;;;9.60;1.38;;;14.70;99.90;;;;;;5033493;28;20080;-67
2022/06/19 05:23:31;;;;;;;6.13;0.63;;;14.80;99.90;;;;;;5039386;28;20033;-70
2022/06/19 05:26:11;;;;;;;7.35;1.60;;;14.80;99.90;;;;;;5023089;28;20060;-70
2022/06/19 05:28:36;;;;;;;4.25;0.38;;;14.80;99.90;;;;;;5015143;28;20540;-69
2022/06/19 05:31:03;;;;;;;3.97;1.25;;;14.80;99.90;;;;;;5040718;28;20033;-67
2022/06/19 05:33:30;;;;;;;3.88;0.90;;;14.90;99.90;;;;;;5036171;28;20510;-69
2022/06/19 05:35:57;;;;;;;3.67;0.93;;;14.80;99.90;;;;;;5022424;28;20052;-70
2022/06/19 05:38:23;;;;;;;8.43;2.00;;;15.00;99.90;;;;;;5043777;28;20117;-68
2022/06/19 05:40:53;;;;;;;7.53;1.00;;;15.00;99.90;;;;;;5043814;28;20053;-67
2022/06/19 05:43:20;;;;;;;6.45;1.02;;;15.00;99.90;;;;;;5042845;28;20044;-67
2022/06/19 05:45:55;;;;;;;5.18;0.60;;;15.00;99.90;;;;;;5039953;28;20115;-69
2022/06/19 05:48:21;;;;;;;6.85;0.88;;;15.00;99.90;;;;;;5020129;28;20034;-68
2022/06/19 05:51:00;;;;;;;6.25;0.82;;;15.00;99.90;;;;;;5039222;28;20045;-68
2022/06/19 05:53:28;;;;;;;6.25;1.30;;;15.10;99.90;;;;;;5038695;28;20037;-70
2022/06/19 05:55:53;;;;;;;13.65;1.63;;;15.00;99.90;;;;;;5037481;28;20097;-70
2022/06/19 05:58:19;;;;;;;7.72;1.02;;;14.90;99.90;;;;;;5038394;28;20444;-66
2022/06/19 06:00:44;;;;;;;7.75;0.93;;;14.90;99.90;;;;;;5020571;28;20029;-70
2022/06/19 06:03:15;;;;;;;5.88;1.00;;;14.80;99.90;;;;;;5037239;28;20029;-69
2022/06/19 06:05:40;;;;;;;6.45;0.90;;;14.80;99.90;;;;;;5038622;28;20033;-69
2022/06/19 06:08:06;;;;;;;7.70;0.90;;;14.80;99.90;;;;;;5035037;28;20029;-69
2022/06/19 06:10:32;;;;;;;5.13;0.80;;;14.80;99.90;;;;;;5034624;28;20033;-68
2022/06/19 06:12:57;;;;;;;12.63;1.08;;;14.80;99.90;;;;;;5039602;28;20057;-69
2022/06/19 06:15:23;;;;;;;12.25;1.00;;;14.80;99.90;;;;;;5035864;28;20045;-68
2022/06/19 06:17:48;;;;;;;6.80;1.33;;;14.90;99.90;;;;;;5019812;28;20147;-68
2022/06/19 06:20:14;;;;;;;9.00;0.85;;;14.90;99.90;;;;;;5037975;28;20147;-69
2022/06/19 06:22:39;;;;;;;2.22;1.08;;;14.90;99.90;;;;;;5018975;28;20104;-69
2022/06/19 06:25:06;;;;;;;4.68;0.80;;;14.90;99.90;;;;;;5039051;28;20040;-69
2022/06/19 06:27:32;;;;;;;6.95;1.08;;;14.90;99.90;;;;;;5035945;28;20038;-67
2022/06/19 06:29:57;;;;;;;10.40;0.80;;;14.90;99.90;;;;;;5030790;28;20032;-70
2022/06/19 06:32:23;;;;;;;3.10;0.68;;;14.90;99.90;;;;;;5035406;28;20049;-68
2022/06/19 06:34:49;;;;;;;5.70;1.08;;;14.90;99.90;;;;;;5040457;28;20029;-69
2022/06/19 06:37:15;;;;;;;8.88;0.70;;;14.90;99.90;;;;;;5024852;28;20367;-69
2022/06/19 06:39:41;;;;;;;5.45;0.63;;;14.90;99.90;;;;;;5040970;28;20580;-70
2022/06/19 06:42:06;;;;;;;5.57;1.10;;;14.90;99.90;;;;;;5019244;28;20087;-67
2022/06/19 06:44:32;;;;;;;4.03;0.55;;;14.90;99.90;;;;;;5038521;28;20033;-68
2022/06/19 06:47:01;;;;;;;5.75;0.90;;;14.80;99.90;;;;;;5036915;28;20036;-69
2022/06/19 06:49:27;;;;;;;11.13;1.25;;;14.90;99.90;;;;;;5038784;28;20045;-69
2022/06/19 06:51:53;;;;;;;7.45;0.93;;;14.90;99.90;;;;;;5036380;28;20030;-69
2022/06/19 06:54:18;;;;;;;4.30;0.70;;;14.90;99.90;;;;;;5037817;28;20440;-67
2022/06/19 06:56:44;;;;;;;3.50;0.57;;;15.00;99.90;;;;;;5037847;28;20544;-69
2022/06/19 06:59:09;;;;;;;11.57;1.10;;;15.00;99.90;;;;;;5019949;28;20056;-69
2022/06/19 07:01:36;;;;;;;10.27;1.33;;;15.00;99.90;;;;;;5023851;28;20385;-69
2022/06/19 07:04:02;;;;;;;5.70;1.25;;;15.00;99.90;;;;;;5039784;28;20025;-70
2022/06/19 07:06:30;;;;;;;12.48;2.05;;;14.90;99.90;;;;;;5024015;28;20029;-71
2022/06/19 07:08:56;;;;;;;7.90;1.42;;;15.00;99.90;;;;;;5036167;28;20093;-69
2022/06/19 07:11:25;;;;;;;9.25;0.85;;;15.00;99.90;;;;;;5038576;28;20481;-68
2022/06/19 07:13:50;;;;;;;9.55;1.38;;;15.00;99.90;;;;;;5042468;28;20122;-69
2022/06/19 07:16:16;;;;;;;7.03;0.82;;;14.90;99.90;;;;;;5022520;28;20492;-70
2022/06/19 07:18:42;;;;;;;4.97;1.13;;;15.00;99.90;;;;;;5040160;28;20026;-71
2022/06/19 07:21:12;;;;;;;9.52;1.40;;;15.00;99.90;;;;;;5041884;28;20029;-70
2022/06/19 07:23:38;;;;;;;7.05;0.70;;;15.10;99.90;;;;;;5021857;28;20037;-69
2022/06/19 07:26:08;;;;;;;9.68;1.80;;;15.00;99.90;;;;;;5045208;28;20038;-69
2022/06/19 07:28:34;;;;;;;3.60;0.50;;;15.00;99.90;;;;;;5046320;28;20064;-68
2022/06/19 07:30:59;;;;;;;5.57;0.50;;;15.00;99.90;;;;;;5050638;28;20025;-67
2022/06/19 07:33:25;;;;;;;6.45;1.40;;;15.00;99.90;;;;;;5031491;28;20394;-69
2022/06/19 07:35:51;;;;;;;11.68;1.50;;;15.00;99.90;;;;;;5022475;28;20527;-70
2022/06/19 07:38:17;;;;;;;4.20;0.60;;;15.00;99.90;;;;;;5035235;28;20426;-70
2022/06/19 07:40:43;;;;;;;6.53;1.00;;;15.00;99.90;;;;;;5021170;28;20060;-68
2022/06/19 07:43:08;;;;;;;8.45;1.27;;;15.00;99.90;;;;;;5023088;28;20051;-68
2022/06/19 07:45:34;;;;;;;9.00;0.88;;;15.00;99.90;;;;;;5035014;28;20064;-68
2022/06/19 07:50:46;;;;;;;3.90;0.70;;;15.00;99.90;;;;;;5038151;28;20088;-68
2022/06/19 07:53:11;;;;;;;5.15;1.48;;;15.00;99.90;;;;;;5041618;28;20104;-71
2022/06/19 07:55:39;;;;;;;5.15;0.60;;;15.00;99.90;;;;;;5041325;28;20123;-69
2022/06/19 07:58:05;;;;;;;12.63;1.42;;;15.00;99.90;;;;;;5039296;28;20060;-69
2022/06/19 08:00:33;;;;;;;7.72;1.00;;;15.00;99.90;;;;;;5040119;28;20057;-67
2022/06/19 08:02:59;;;;;;;8.95;0.77;;;15.00;99.90;;;;;;5022618;28;20040;-69
2022/06/19 08:05:30;;;;;;;6.78;1.02;;;15.00;99.90;;;;;;5022199;28;20037;-68
2022/06/19 08:08:00;;;;;;;8.95;0.80;;;14.90;99.90;;;;;;5019709;28;20042;-69
2022/06/19 08:10:49;;;;;;;7.32;1.10;;;14.90;99.90;;;;;;5020791;28;20083;-68
2022/06/19 08:13:19;;;;;;;7.25;0.70;;;14.80;99.90;;;;;;5039291;28;20452;-69
2022/06/19 08:15:46;;;;;;;7.15;1.20;;;14.70;99.90;;;;;;5019717;28;20048;-70
2022/06/19 08:18:11;;;;;;;9.43;1.00;;;14.60;99.90;;;;;;5040058;28;20128;-70
2022/06/19 08:20:37;;;;;;;11.85;1.25;;;14.50;99.90;;;;;;5037924;28;20116;-67
2022/06/19 08:23:03;;;;;;;7.10;0.73;;;14.50;99.90;;;;;;5019084;28;20037;-70
2022/06/19 08:25:29;;;;;;;4.97;0.70;;;14.50;99.90;;;;;;5040833;28;20041;-70
2022/06/19 08:27:54;;;;;;;5.25;1.13;;;14.50;99.90;;;;;;5020833;28;20557;-71
2022/06/19 08:30:24;;;;;;;7.55;0.88;;;14.60;99.90;;;;;;5021255;28;20102;-69
2022/06/19 08:32:51;;;;;;;6.13;0.68;;;14.70;99.90;;;;;;5019065;28;20029;-69
2022/06/19 08:35:17;;;;;;;7.82;1.77;;;14.70;99.90;;;;;;5039522;28;20048;-70
2022/06/19 08:37:45;;;;;;;6.30;1.30;;;14.80;99.90;;;;;;5036980;28;20045;-70
2022/06/19 08:40:55;;;;;;;8.98;1.73;;;14.80;99.90;;;;;;5037073;28;20026;-70
2022/06/19 08:43:29;;;;;;;9.43;1.38;;;14.90;99.90;;;;;;5000592;28;20044;-69
2022/06/19 08:46:19;;;;;;;7.20;0.98;;;15.00;99.90;;;;;;5028811;28;20052;-70
2022/06/19 08:49:22;;;;;;;6.93;1.20;;;15.00;99.90;;;;;;5019677;28;20082;-71
2022/06/19 08:52:19;;;;;;;6.63;0.90;;;15.00;99.90;;;;;;5037545;28;20577;-70
2022/06/19 08:54:53;;;;;;;6.90;0.85;;;15.00;99.90;;;;;;5017262;28;20520;-70
2022/06/19 08:57:42;;;;;;;7.22;2.03;;;15.00;99.90;;;;;;5034472;28;20432;-70
2022/06/19 09:00:17;;;;;;;9.55;1.75;;;15.00;99.90;;;;;;5036993;28;20041;-68
2022/06/19 09:02:49;;;;;;;4.78;1.02;;;15.10;99.90;;;;;;5038327;28;20121;-68
2022/06/19 09:05:48;;;;;;;5.82;0.95;;;15.10;99.90;;;;;;5017314;28;20584;-68
2022/06/19 09:09:01;;;;;;;10.77;1.85;;;15.20;99.90;;;;;;5021515;28;20045;-71
2022/06/19 09:11:47;;;;;;;4.13;1.17;;;15.30;99.90;;;;;;5020362;28;20029;-68
2022/06/19 09:14:34;;;;;;;6.88;1.15;;;15.40;99.90;;;;;;5038159;28;20033;-68
2022/06/19 09:17:11;;;;;;;6.53;1.05;;;15.60;99.90;;;;;;5038470;28;20501;-70
2022/06/19 09:20:35;;;;;;;9.27;1.42;;;15.80;99.90;;;;;;5044325;28;20048;-70
2022/06/19 09:23:26;;;;;;;7.22;0.95;;;16.20;99.90;;;;;;4978393;28;20049;-69
2022/06/19 09:26:25;;;;;;;4.45;0.85;;;16.60;99.90;;;;;;4977489;28;20042;-69
2022/06/19 09:29:01;;;;;;;4.32;0.60;;;16.80;99.90;;;;;;5013095;28;20060;-68
2022/06/19 09:31:33;;;;;;;5.68;0.77;;;16.90;99.90;;;;;;5037312;28;20033;-69
2022/06/19 09:33:59;;;;;;;4.13;1.25;;;17.10;99.90;;;;;;5014817;28;20124;-70
2022/06/19 09:37:05;;;;;;;2.42;0.70;;;17.30;99.90;;;;;;5021964;28;20116;-71
2022/06/19 09:39:47;;;;;;;4.47;0.65;;;17.40;99.90;;;;;;5013939;28;20546;-72
2022/06/19 09:42:30;;;;;;;4.75;0.60;;;17.50;99.90;;;;;;5022788;28;20040;-71
2022/06/19 09:44:59;;;;;;;6.80;0.80;;;17.60;99.90;;;;;;5018275;28;20040;-70
2022/06/19 09:47:57;;;;;;;6.72;0.88;;;17.50;99.90;;;;;;5019809;28;20040;-70
2022/06/19 09:50:22;;;;;;;4.82;0.85;;;17.40;99.90;;;;;;5031647;28;20057;-68
2022/06/19 09:53:29;;;;;;;6.38;1.33;;;17.40;99.90;;;;;;5022064;28;20116;-70
2022/06/19 09:55:59;;;;;;;6.40;0.60;;;17.30;99.90;;;;;;5040387;28;20037;-70
2022/06/19 09:58:33;;;;;;;;;;;17.20;99.90;;;;;;5037871;28;20037;-70
2022/06/19 10:01:00;;;;;;;4.65;1.08;;;17.00;99.90;;;;;;5022035;28;19916;-67
2022/06/19 10:03:41;;;;;;;9.55;0.93;;;16.90;99.90;;;;;;5036193;28;20079;-71
2022/06/19 10:06:21;;;;;;;7.28;0.93;;;16.80;99.90;;;;;;5020071;28;20037;-68
2022/06/19 10:08:54;;;;;;;6.82;1.17;;;16.70;99.90;;;;;;5032550;28;20087;-69
2022/06/19 10:11:28;;;;;;;13.75;1.33;;;16.60;99.90;;;;;;5032863;28;20184;-68
2022/06/19 10:13:59;;;;;;;5.63;1.63;;;16.40;99.90;;;;;;5038961;28;20094;-69
2022/06/19 10:16:57;;;;;;;7.45;1.48;;;16.40;99.90;;;;;;5017860;28;20045;-71
2022/06/19 10:19:50;;;;;;;10.50;0.90;;;16.20;99.90;;;;;;5033218;28;20037;-70
2022/06/19 10:22:42;;;;;;;9.23;1.23;;;16.10;99.90;;;;;;5014420;28;20041;-68
2022/06/19 10:25:26;;;;;;;9.23;1.73;;;16.10;99.90;;;;;;5022761;28;20025;-69
2022/06/19 10:28:00;;;;;;;10.93;1.60;;;16.00;99.90;;;;;;5033694;28;20033;-69
2022/06/19 10:30:31;;;;;;;7.47;1.02;;;15.80;99.90;;;;;;5017683;28;20121;-68
2022/06/19 10:33:12;;;;;;;7.53;0.88;;;15.80;99.90;;;;;;5032746;28;20026;-71
2022/06/19 10:36:01;;;;;;;12.35;1.00;;;15.80;99.90;;;;;;5038681;28;20033;-69
2022/06/19 10:38:42;;;;;;;6.07;1.40;;;15.80;99.90;;;;;;5040038;28;20493;-70
2022/06/19 10:42:01;;;;;;;14.38;0.73;;;15.80;99.90;;;;;;5040765;28;20124;-70
2022/06/19 10:44:46;;;;;;;5.57;0.55;;;15.90;99.90;;;;;;5037558;28;20129;-70
2022/06/19 10:47:29;;;;;;;7.75;1.27;;;15.90;99.90;;;;;;5040469;28;20044;-70
2022/06/19 10:50:13;;;;;;;5.90;0.70;;;15.90;99.90;;;;;;5020476;28;20100;-70
2022/06/19 10:53:09;;;;;;;7.47;1.15;;;15.90;99.90;;;;;;5046824;28;20389;-71
2022/06/19 10:55:51;;;;;;;4.72;0.60;;;15.90;99.90;;;;;;5040819;28;20044;-70
2022/06/19 10:58:21;;;;;;;8.02;0.82;;;15.90;99.90;;;;;;5038253;28;20136;-70
2022/06/19 11:01:01;;;;;;;7.05;1.05;;;15.90;99.90;;;;;;5035209;28;20123;-67
2022/06/19 11:06:45;;;;;;;5.50;0.88;;;16.30;99.90;;;;;;5043260;28;20068;-70
2022/06/19 11:09:31;;;;;;;6.88;0.90;;;16.70;99.90;;;;;;5047829;28;20072;-71
2022/06/19 11:12:07;;;;;;;5.68;0.93;;;16.90;99.90;;;;;;5044255;28;20092;-71
2022/06/19 11:15:03;;;;;;;6.57;0.70;;;17.10;99.90;;;;;;5040888;28;20071;-70
2022/06/19 11:17:31;;;;;;;9.50;0.82;;;17.30;99.90;;;;;;5036621;28;20048;-70
2022/06/19 11:19:56;;;;;;;7.10;0.88;;;17.60;99.90;;;;;;5041796;28;20029;-71
2022/06/19 11:22:24;;;;;;;6.03;1.13;;;17.80;99.90;;;;;;5039871;28;20033;-67
2022/06/19 11:24:52;;;;;;;6.30;0.60;;;17.90;99.90;;;;;;5050084;28;20036;-69
2022/06/19 11:27:22;;;;;;;6.28;1.30;;;18.20;99.90;;;;;;5023979;28;20029;-72
2022/06/19 11:29:49;;;;;;;;;;;18.30;99.90;;;;;;5039655;28;20057;-71
2022/06/19 11:32:20;;;;;;;4.68;0.60;;;18.40;99.90;;;;;;5039339;28;19923;-70
2022/06/19 11:35:07;;;;;;;4.68;0.50;;;18.40;99.90;;;;;;5035602;28;20397;-70
2022/06/19 11:37:34;;;;;;;1.98;0.57;;;18.50;99.90;;;;;;5041284;28;20067;-70
2022/06/19 11:40:00;;;;;;;6.75;0.50;;;18.60;99.90;;;;;;5040452;28;20463;-70
2022/06/19 11:42:25;;;;;;;2.60;0.47;;;18.60;99.90;;;;;;5039488;28;20038;-69
2022/06/19 11:45:04;;;;;;;3.83;0.70;;;18.50;99.90;;;;;;5037088;28;20041;-69
2022/06/19 11:47:40;;;;;;;1.73;0.63;;;18.50;99.90;;;;;;5031359;28;20030;-71
2022/06/19 11:50:14;;;;;;;1.55;0.40;;;18.50;99.90;;;;;;5033320;28;20030;-71
2022/06/19 11:53:02;;;;;;;2.08;0.40;;;18.50;99.90;;;;;;5032604;28;20032;-69
2022/06/19 11:55:32;;;;;;;6.47;0.75;;;18.20;99.90;;;;;;5036928;28;20029;-72
2022/06/19 11:58:30;;;;;;;7.18;0.32;;;18.20;99.90;;;;;;5023136;28;20065;-70
2022/06/19 12:01:29;;;;;;;5.20;0.95;;;18.00;99.90;;;;;;5038080;28;20033;-67
2022/06/19 12:03:58;;;;;;;2.15;0.73;;;17.90;99.90;;;;;;5028405;28;20405;-69
2022/06/19 12:06:45;;;;;;;2.17;0.68;;;17.90;99.90;;;;;;5033188;28;20564;-69
2022/06/19 12:09:29;;;;;;;3.15;0.32;;;17.90;99.90;;;;;;5016250;28;20036;-69
2022/06/19 12:12:06;;;;;;;2.22;0.20;;;17.90;99.90;;;;;;5036479;28;20499;-67
2022/06/19 12:14:46;;;;;;;5.75;0.70;;;18.00;99.90;;;;;;5017534;28;20037;-70
2022/06/19 12:17:26;;;;;;;1.93;0.50;;;18.10;99.90;;;;;;5032067;28;20634;-70
2022/06/19 12:20:06;;;;;;;3.55;0.50;;;18.30;99.90;;;;;;5034808;28;20629;-67
2022/06/19 12:22:49;;;;;;;6.65;0.80;;;18.40;99.90;;;;;;5032042;28;20045;-70
2022/06/19 12:25:33;;;;;;;4.13;0.40;;;18.60;99.90;;;;;;5035714;28;20090;-69
2022/06/19 12:27:58;;;;;;;5.07;0.30;;;18.90;99.90;;;;;;5038313;28;20037;-70
2022/06/19 12:30:40;;;;;;;4.95;0.38;;;19.00;99.90;;;;;;5037877;28;20048;-67
2022/06/19 12:33:14;;;;;;;4.32;0.47;;;19.10;99.90;;;;;;5021541;28;20037;-70
2022/06/19 12:35:49;;;;;;;3.45;0.30;;;19.20;99.90;;;;;;5026780;28;20450;-68
2022/06/19 12:38:17;;;;;;;7.75;0.70;;;19.40;99.90;;;;;;5037091;28;20025;-68
2022/06/19 12:41:09;;;;;;;0.90;0.20;;;19.50;99.90;;;;;;5022554;28;20091;-70
2022/06/19 12:43:50;;;;;;;2.92;0.47;;;19.60;99.90;;;;;;5029349;28;20041;-71
2022/06/19 12:46:39;;;;;;;3.03;0.47;;;19.70;99.90;;;;;;5028500;28;20037;-70
2022/06/19 12:49:33;;;;;;;2.53;0.57;;;19.60;99.90;;;;;;5032728;28;20044;-70
2022/06/19 12:52:19;;;;;;;3.60;0.38;;;19.60;99.90;;;;;;5037340;28;20485;-71
2022/06/19 12:55:03;;;;;;;3.90;1.10;;;19.60;99.90;;;;;;5031060;28;20499;-70
2022/06/19 12:57:55;;;;;;;10.52;3.00;;;19.50;99.90;;;;;;5035173;28;20036;-70
2022/06/19 13:00:47;;;;;;;4.80;1.23;;;19.40;99.90;;;;;;5034646;28;20033;-70
2022/06/19 13:03:36;;;;;;;6.65;0.52;;;19.20;99.90;;;;;;5039662;28;20063;-71
2022/06/19 13:06:20;;;;;;;3.65;0.68;;;19.20;99.90;;;;;;5042298;28;20103;-70
2022/06/19 13:08:57;;;;;;;3.35;0.28;;;19.20;99.90;;;;;;5034945;28;20038;-70
2022/06/19 13:11:23;;;;;;;4.45;0.82;;;19.00;99.90;;;;;;5041796;28;20041;-71
2022/06/19 13:14:13;;;;;;;7.78;1.27;;;19.00;99.90;;;;;;5039309;28;20697;-70
2022/06/19 13:17:02;;;;;;;4.55;0.70;;;19.10;99.90;;;;;;5032745;28;20030;-69
2022/06/19 13:20:10;;;;;;;3.05;0.45;;;19.20;99.90;;;;;;5036022;28;20041;-69